sensor_id;sensor_type;location;lat;lon;timestamp;temperature;humidity
20803;DHT22;10562;-33.856;151.182;2022-10-18T00:00:02;19.40;99.90
20803;DHT22;10562;-33.856;151.182;2022-10-18T00:02:33;19.30;99.90
20803;DHT22;10562;-33.856;151.182;2022-10-18T00:05:07;19.40;99.90
20803;DHT22;10562;-33.856;151.182;2022-10-18T00:07:38;19.60;99.90
20803;DHT22;10562;-33.856;151.182;2022-10-18T00:10:09;19.70;99.90
20803;DHT22;10562;-33.856;151.182;2022-10-18T00:12:40;19.80;99.90
20803;DHT22;10562;-33.856;151.182;2022-10-18T00:15:11;20.10;99.90
20803;DHT22;10562;-33.856;151.182;2022-10-18T00:17:42;20.30;99.90
20803;DHT22;10562;-33.856;151.182;2022-10-18T00:20:14;20.30;99.90
20803;DHT22;10562;-33.856;151.182;2022-10-18T00:22:45;20.30;99.90
20803;DHT22;10562;-33.856;151.182;2022-10-18T00:25:16;20.30;99.90
20803;DHT22;10562;-33.856;151.182;2022-10-18T00:27:47;20.80;99.90
20803;DHT22;10562;-33.856;151.182;2022-10-18T00:30:19;21.30;99.90
20803;DHT22;10562;-33.856;151.182;2022-10-18T00:32:50;21.80;99.90
20803;DHT22;10562;-33.856;151.182;2022-10-18T00:35:24;21.90;99.90
20803;DHT22;10562;-33.856;151.182;2022-10-18T00:37:55;21.80;99.90
20803;DHT22;10562;-33.856;151.182;2022-10-18T00:40:25;21.90;99.90
20803;DHT22;10562;-33.856;151.182;2022-10-18T00:42:56;21.60;99.90
20803;DHT22;10562;-33.856;151.182;2022-10-18T00:45:27;21.80;99.90
20803;DHT22;10562;-33.856;151.182;2022-10-18T00:47:59;21.50;99.90
20803;DHT22;10562;-33.856;151.182;2022-10-18T00:50:33;21.60;99.90
20803;DHT22;10562;-33.856;151.182;2022-10-18T00:53:08;21.60;99.90
20803;DHT22;10562;-33.856;151.182;2022-10-18T00:55:41;21.60;99.90
20803;DHT22;10562;-33.856;151.182;2022-10-18T00:58:13;21.80;99.90
20803;DHT22;10562;-33.856;151.182;2022-10-18T01:00:46;21.50;99.90
20803;DHT22;10562;-33.856;151.182;2022-10-18T01:03:18;21.50;99.90
20803;DHT22;10562;-33.856;151.182;2022-10-18T01:05:52;21.60;99.90
20803;DHT22;10562;-33.856;151.182;2022-10-18T01:08:52;21.90;99.90
20803;DHT22;10562;-33.856;151.182;2022-10-18T01:14:34;22.30;99.90
20803;DHT22;10562;-33.856;151.182;2022-10-18T01:17:14;22.50;99.90
20803;DHT22;10562;-33.856;151.182;2022-10-18T01:20:16;22.60;99.90
20803;DHT22;10562;-33.856;151.182;2022-10-18T01:22:58;22.70;99.90
20803;DHT22;10562;-33.856;151.182;2022-10-18T01:25:39;22.60;99.90
20803;DHT22;10562;-33.856;151.182;2022-10-18T01:28:26;22.60;99.90
20803;DHT22;10562;-33.856;151.182;2022-10-18T01:31:04;22.80;99.90
20803;DHT22;10562;-33.856;151.182;2022-10-18T01:33:39;23.00;99.90
20803;DHT22;10562;-33.856;151.182;2022-10-18T01:36:16;22.50;99.90
20803;DHT22;10562;-33.856;151.182;2022-10-18T01:38:52;22.20;99.90
20803;DHT22;10562;-33.856;151.182;2022-10-18T01:41:24;22.40;99.90
20803;DHT22;10562;-33.856;151.182;2022-10-18T01:43:58;22.10;99.90
20803;DHT22;10562;-33.856;151.182;2022-10-18T01:46:31;22.30;99.90
20803;DHT22;10562;-33.856;151.182;2022-10-18T01:49:02;22.30;99.90
20803;DHT22;10562;-33.856;151.182;2022-10-18T01:51:34;22.60;99.90
20803;DHT22;10562;-33.856;151.182;2022-10-18T01:54:06;22.90;99.90
20803;DHT22;10562;-33.856;151.182;2022-10-18T01:56:42;22.60;99.90
20803;DHT22;10562;-33.856;151.182;2022-10-18T01:59:28;22.40;99.90
20803;DHT22;10562;-33.856;151.182;2022-10-18T02:02:08;22.30;99.90
20803;DHT22;10562;-33.856;151.182;2022-10-18T02:04:45;22.00;99.90
20803;DHT22;10562;-33.856;151.182;2022-10-18T02:07:26;21.60;99.90
20803;DHT22;10562;-33.856;151.182;2022-10-18T02:10:02;21.30;99.90
20803;DHT22;10562;-33.856;151.182;2022-10-18T02:12:36;21.00;99.90
20803;DHT22;10562;-33.856;151.182;2022-10-18T02:15:12;21.00;99.90
20803;DHT22;10562;-33.856;151.182;2022-10-18T02:17:46;20.90;99.90
20803;DHT22;10562;-33.856;151.182;2022-10-18T02:20:20;20.80;99.90
20803;DHT22;10562;-33.856;151.182;2022-10-18T02:22:54;20.70;99.90
20803;DHT22;10562;-33.856;151.182;2022-10-18T02:25:26;20.60;99.90
20803;DHT22;10562;-33.856;151.182;2022-10-18T02:27:59;20.60;99.90
20803;DHT22;10562;-33.856;151.182;2022-10-18T02:30:34;20.60;99.90
20803;DHT22;10562;-33.856;151.182;2022-10-18T02:33:13;20.30;99.90
20803;DHT22;10562;-33.856;151.182;2022-10-18T02:35:48;20.20;99.90
20803;DHT22;10562;-33.856;151.182;2022-10-18T02:38:23;19.90;99.90
20803;DHT22;10562;-33.856;151.182;2022-10-18T02:40:55;19.90;99.90
20803;DHT22;10562;-33.856;151.182;2022-10-18T02:43:27;19.90;99.90
20803;DHT22;10562;-33.856;151.182;2022-10-18T02:45:58;19.80;99.90
20803;DHT22;10562;-33.856;151.182;2022-10-18T02:48:30;20.00;99.90
20803;DHT22;10562;-33.856;151.182;2022-10-18T02:51:01;20.00;99.90
20803;DHT22;10562;-33.856;151.182;2022-10-18T02:53:32;20.20;99.90
20803;DHT22;10562;-33.856;151.182;2022-10-18T02:56:02;20.20;99.90
20803;DHT22;10562;-33.856;151.182;2022-10-18T02:58:33;20.20;99.90
20803;DHT22;10562;-33.856;151.182;2022-10-18T03:01:04;20.20;99.90
20803;DHT22;10562;-33.856;151.182;2022-10-18T03:03:37;20.00;99.90
20803;DHT22;10562;-33.856;151.182;2022-10-18T03:06:07;20.00;99.90
20803;DHT22;10562;-33.856;151.182;2022-10-18T03:08:38;20.10;99.90
20803;DHT22;10562;-33.856;151.182;2022-10-18T03:11:09;20.10;99.90
20803;DHT22;10562;-33.856;151.182;2022-10-18T03:13:40;20.20;99.90
20803;DHT22;10562;-33.856;151.182;2022-10-18T03:16:12;20.10;99.90
20803;DHT22;10562;-33.856;151.182;2022-10-18T03:18:45;20.10;99.90
20803;DHT22;10562;-33.856;151.182;2022-10-18T03:21:15;20.00;99.90
20803;DHT22;10562;-33.856;151.182;2022-10-18T03:23:46;19.80;99.90
20803;DHT22;10562;-33.856;151.182;2022-10-18T03:26:17;19.70;99.90
20803;DHT22;10562;-33.856;151.182;2022-10-18T03:28:48;19.70;99.90
20803;DHT22;10562;-33.856;151.182;2022-10-18T03:31:19;19.70;99.90
20803;DHT22;10562;-33.856;151.182;2022-10-18T03:33:51;19.60;99.90
20803;DHT22;10562;-33.856;151.182;2022-10-18T03:36:22;19.60;99.90
20803;DHT22;10562;-33.856;151.182;2022-10-18T03:38:53;19.50;99.90
20803;DHT22;10562;-33.856;151.182;2022-10-18T03:41:24;19.40;99.90
20803;DHT22;10562;-33.856;151.182;2022-10-18T03:43:54;19.30;99.90
20803;DHT22;10562;-33.856;151.182;2022-10-18T03:46:25;19.20;99.90
20803;DHT22;10562;-33.856;151.182;2022-10-18T03:48:58;19.10;99.90
20803;DHT22;10562;-33.856;151.182;2022-10-18T03:51:29;19.10;99.90
20803;DHT22;10562;-33.856;151.182;2022-10-18T03:54:00;18.90;99.90
20803;DHT22;10562;-33.856;151.182;2022-10-18T03:56:30;18.90;99.90
20803;DHT22;10562;-33.856;151.182;2022-10-18T03:59:02;18.80;99.90
20803;DHT22;10562;-33.856;151.182;2022-10-18T04:01:33;18.70;99.90
20803;DHT22;10562;-33.856;151.182;2022-10-18T04:04:06;18.60;99.90
20803;DHT22;10562;-33.856;151.182;2022-10-18T04:06:37;18.50;99.90
20803;DHT22;10562;-33.856;151.182;2022-10-18T04:09:08;18.50;99.90
20803;DHT22;10562;-33.856;151.182;2022-10-18T04:11:39;18.50;99.90
20803;DHT22;10562;-33.856;151.182;2022-10-18T04:14:09;18.60;99.90
20803;DHT22;10562;-33.856;151.182;2022-10-18T04:16:41;18.60;99.90
20803;DHT22;10562;-33.856;151.182;2022-10-18T04:19:14;18.70;99.90
20803;DHT22;10562;-33.856;151.182;2022-10-18T04:21:45;18.80;99.90
20803;DHT22;10562;-33.856;151.182;2022-10-18T04:24:17;18.90;99.90
20803;DHT22;10562;-33.856;151.182;2022-10-18T04:26:48;19.00;99.90
20803;DHT22;10562;-33.856;151.182;2022-10-18T04:29:18;19.10;99.90
20803;DHT22;10562;-33.856;151.182;2022-10-18T04:31:49;19.20;99.90
20803;DHT22;10562;-33.856;151.182;2022-10-18T04:34:22;19.20;99.90
20803;DHT22;10562;-33.856;151.182;2022-10-18T04:36:56;19.30;99.90
20803;DHT22;10562;-33.856;151.182;2022-10-18T04:39:26;19.40;99.90
20803;DHT22;10562;-33.856;151.182;2022-10-18T04:41:57;19.40;99.90
20803;DHT22;10562;-33.856;151.182;2022-10-18T04:44:28;19.50;99.90
20803;DHT22;10562;-33.856;151.182;2022-10-18T04:47:01;19.40;99.90
20803;DHT22;10562;-33.856;151.182;2022-10-18T04:49:33;19.30;99.90
20803;DHT22;10562;-33.856;151.182;2022-10-18T04:52:05;19.30;99.90
20803;DHT22;10562;-33.856;151.182;2022-10-18T04:54:36;19.30;99.90
20803;DHT22;10562;-33.856;151.182;2022-10-18T04:57:06;19.30;99.90
20803;DHT22;10562;-33.856;151.182;2022-10-18T04:59:37;19.30;99.90
20803;DHT22;10562;-33.856;151.182;2022-10-18T05:02:08;19.20;99.90
20803;DHT22;10562;-33.856;151.182;2022-10-18T05:04:40;19.20;99.90
20803;DHT22;10562;-33.856;151.182;2022-10-18T05:07:11;19.10;99.90
20803;DHT22;10562;-33.856;151.182;2022-10-18T05:09:42;19.10;99.90
20803;DHT22;10562;-33.856;151.182;2022-10-18T05:12:13;19.10;99.90
20803;DHT22;10562;-33.856;151.182;2022-10-18T05:14:43;19.10;99.90
20803;DHT22;10562;-33.856;151.182;2022-10-18T05:17:14;19.10;99.90
20803;DHT22;10562;-33.856;151.182;2022-10-18T05:19:47;19.10;99.90
20803;DHT22;10562;-33.856;151.182;2022-10-18T05:22:18;18.90;99.90
20803;DHT22;10562;-33.856;151.182;2022-10-18T05:24:48;18.80;99.90
20803;DHT22;10562;-33.856;151.182;2022-10-18T05:27:19;18.70;99.90
20803;DHT22;10562;-33.856;151.182;2022-10-18T05:29:50;18.60;99.90
20803;DHT22;10562;-33.856;151.182;2022-10-18T05:32:21;18.60;99.90
20803;DHT22;10562;-33.856;151.182;2022-10-18T05:34:53;18.60;99.90
20803;DHT22;10562;-33.856;151.182;2022-10-18T05:37:24;18.50;99.90
20803;DHT22;10562;-33.856;151.182;2022-10-18T05:39:55;18.50;99.90
20803;DHT22;10562;-33.856;151.182;2022-10-18T05:42:25;18.50;99.90
20803;DHT22;10562;-33.856;151.182;2022-10-18T05:44:56;18.50;99.90
20803;DHT22;10562;-33.856;151.182;2022-10-18T05:47:27;18.60;99.90
20803;DHT22;10562;-33.856;151.182;2022-10-18T05:50:00;18.60;99.90
20803;DHT22;10562;-33.856;151.182;2022-10-18T05:52:30;18.70;99.90
20803;DHT22;10562;-33.856;151.182;2022-10-18T05:55:01;18.70;99.90
20803;DHT22;10562;-33.856;151.182;2022-10-18T05:57:32;18.80;99.90
20803;DHT22;10562;-33.856;151.182;2022-10-18T06:00:03;18.80;99.90
20803;DHT22;10562;-33.856;151.182;2022-10-18T06:02:34;18.80;99.90
20803;DHT22;10562;-33.856;151.182;2022-10-18T06:05:07;18.80;99.90
20803;DHT22;10562;-33.856;151.182;2022-10-18T06:07:38;18.80;99.90
20803;DHT22;10562;-33.856;151.182;2022-10-18T06:10:09;18.80;99.90
20803;DHT22;10562;-33.856;151.182;2022-10-18T06:12:40;18.80;99.90
20803;DHT22;10562;-33.856;151.182;2022-10-18T06:15:11;18.80;99.90
20803;DHT22;10562;-33.856;151.182;2022-10-18T06:17:42;18.80;99.90
20803;DHT22;10562;-33.856;151.182;2022-10-18T06:20:14;18.80;99.90
20803;DHT22;10562;-33.856;151.182;2022-10-18T06:22:46;18.80;99.90
20803;DHT22;10562;-33.856;151.182;2022-10-18T06:25:17;18.80;99.90
20803;DHT22;10562;-33.856;151.182;2022-10-18T06:27:48;18.80;99.90
20803;DHT22;10562;-33.856;151.182;2022-10-18T06:30:18;18.90;99.90
20803;DHT22;10562;-33.856;151.182;2022-10-18T06:32:49;18.90;99.90
20803;DHT22;10562;-33.856;151.182;2022-10-18T06:35:22;19.00;99.90
20803;DHT22;10562;-33.856;151.182;2022-10-18T06:37:53;18.90;99.90
20803;DHT22;10562;-33.856;151.182;2022-10-18T06:40:24;19.00;99.90
20803;DHT22;10562;-33.856;151.182;2022-10-18T06:42:55;18.90;99.90
20803;DHT22;10562;-33.856;151.182;2022-10-18T06:45:27;18.90;99.90
20803;DHT22;10562;-33.856;151.182;2022-10-18T06:47:58;18.90;99.90
20803;DHT22;10562;-33.856;151.182;2022-10-18T06:50:31;18.90;99.90
20803;DHT22;10562;-33.856;151.182;2022-10-18T06:53:02;18.80;99.90
20803;DHT22;10562;-33.856;151.182;2022-10-18T06:55:35;18.90;99.90
20803;DHT22;10562;-33.856;151.182;2022-10-18T06:58:06;18.80;99.90
20803;DHT22;10562;-33.856;151.182;2022-10-18T07:00:36;18.80;99.90
20803;DHT22;10562;-33.856;151.182;2022-10-18T07:03:07;18.80;99.90
20803;DHT22;10562;-33.856;151.182;2022-10-18T07:05:40;18.70;99.90
20803;DHT22;10562;-33.856;151.182;2022-10-18T07:08:11;18.70;99.90
20803;DHT22;10562;-33.856;151.182;2022-10-18T07:10:42;18.70;99.90
20803;DHT22;10562;-33.856;151.182;2022-10-18T07:13:19;18.60;99.90
20803;DHT22;10562;-33.856;151.182;2022-10-18T07:16:00;18.60;99.90
20803;DHT22;10562;-33.856;151.182;2022-10-18T07:18:31;18.60;99.90
20803;DHT22;10562;-33.856;151.182;2022-10-18T07:21:05;18.50;99.90
20803;DHT22;10562;-33.856;151.182;2022-10-18T07:23:38;18.60;99.90
20803;DHT22;10562;-33.856;151.182;2022-10-18T07:26:13;18.60;99.90
20803;DHT22;10562;-33.856;151.182;2022-10-18T07:28:45;18.50;99.90
20803;DHT22;10562;-33.856;151.182;2022-10-18T07:31:16;18.50;99.90
20803;DHT22;10562;-33.856;151.182;2022-10-18T07:33:47;18.50;99.90
20803;DHT22;10562;-33.856;151.182;2022-10-18T07:36:20;18.50;99.90
20803;DHT22;10562;-33.856;151.182;2022-10-18T07:38:52;18.50;99.90
20803;DHT22;10562;-33.856;151.182;2022-10-18T07:41:23;18.50;99.90
20803;DHT22;10562;-33.856;151.182;2022-10-18T07:43:54;18.50;99.90
20803;DHT22;10562;-33.856;151.182;2022-10-18T07:46:24;18.50;99.90
20803;DHT22;10562;-33.856;151.182;2022-10-18T07:48:55;18.50;99.90
20803;DHT22;10562;-33.856;151.182;2022-10-18T07:51:29;18.40;99.90
20803;DHT22;10562;-33.856;151.182;2022-10-18T07:53:59;18.40;99.90
20803;DHT22;10562;-33.856;151.182;2022-10-18T07:56:30;18.40;99.90
20803;DHT22;10562;-33.856;151.182;2022-10-18T07:59:01;18.40;99.90
20803;DHT22;10562;-33.856;151.182;2022-10-18T08:01:32;18.40;99.90
20803;DHT22;10562;-33.856;151.182;2022-10-18T08:04:03;18.30;99.90
20803;DHT22;10562;-33.856;151.182;2022-10-18T08:06:36;18.30;99.90
20803;DHT22;10562;-33.856;151.182;2022-10-18T08:09:07;18.30;99.90
20803;DHT22;10562;-33.856;151.182;2022-10-18T08:11:37;18.30;99.90
20803;DHT22;10562;-33.856;151.182;2022-10-18T08:14:08;18.30;99.90
20803;DHT22;10562;-33.856;151.182;2022-10-18T08:16:39;18.30;99.90
20803;DHT22;10562;-33.856;151.182;2022-10-18T08:19:10;18.20;99.90
20803;DHT22;10562;-33.856;151.182;2022-10-18T08:21:42;18.20;99.90
20803;DHT22;10562;-33.856;151.182;2022-10-18T08:24:13;18.10;99.90
20803;DHT22;10562;-33.856;151.182;2022-10-18T08:26:44;18.10;99.90
20803;DHT22;10562;-33.856;151.182;2022-10-18T08:29:15;18.10;99.90
20803;DHT22;10562;-33.856;151.182;2022-10-18T08:31:45;18.00;99.90
20803;DHT22;10562;-33.856;151.182;2022-10-18T08:34:18;18.00;99.90
20803;DHT22;10562;-33.856;151.182;2022-10-18T08:36:51;18.00;99.90
20803;DHT22;10562;-33.856;151.182;2022-10-18T08:39:22;18.00;99.90
20803;DHT22;10562;-33.856;151.182;2022-10-18T08:42:14;18.00;99.90
20803;DHT22;10562;-33.856;151.182;2022-10-18T08:44:50;18.00;99.90
20803;DHT22;10562;-33.856;151.182;2022-10-18T08:47:24;18.00;99.90
20803;DHT22;10562;-33.856;151.182;2022-10-18T08:50:02;18.00;99.90
20803;DHT22;10562;-33.856;151.182;2022-10-18T08:52:41;18.00;99.90
20803;DHT22;10562;-33.856;151.182;2022-10-18T08:55:17;18.00;99.90
20803;DHT22;10562;-33.856;151.182;2022-10-18T08:57:53;18.00;99.90
20803;DHT22;10562;-33.856;151.182;2022-10-18T09:00:26;18.10;99.90
20803;DHT22;10562;-33.856;151.182;2022-10-18T09:03:21;18.10;99.90
20803;DHT22;10562;-33.856;151.182;2022-10-18T09:06:00;18.10;99.90
20803;DHT22;10562;-33.856;151.182;2022-10-18T09:08:58;18.10;99.90
20803;DHT22;10562;-33.856;151.182;2022-10-18T09:11:42;18.20;99.90
20803;DHT22;10562;-33.856;151.182;2022-10-18T09:17:33;18.20;99.90
20803;DHT22;10562;-33.856;151.182;2022-10-18T09:20:21;18.10;99.90
20803;DHT22;10562;-33.856;151.182;2022-10-18T09:22:54;18.20;99.90
20803;DHT22;10562;-33.856;151.182;2022-10-18T09:25:34;18.10;99.90
20803;DHT22;10562;-33.856;151.182;2022-10-18T09:28:15;18.10;99.90
20803;DHT22;10562;-33.856;151.182;2022-10-18T09:30:54;18.10;99.90
20803;DHT22;10562;-33.856;151.182;2022-10-18T09:33:40;18.10;99.90
20803;DHT22;10562;-33.856;151.182;2022-10-18T09:36:18;18.10;99.90
20803;DHT22;10562;-33.856;151.182;2022-10-18T09:38:52;18.00;99.90
20803;DHT22;10562;-33.856;151.182;2022-10-18T09:41:29;18.00;99.90
20803;DHT22;10562;-33.856;151.182;2022-10-18T09:44:04;18.00;99.90
20803;DHT22;10562;-33.856;151.182;2022-10-18T09:46:39;18.00;99.90
20803;DHT22;10562;-33.856;151.182;2022-10-18T09:49:15;18.00;99.90
20803;DHT22;10562;-33.856;151.182;2022-10-18T09:51:48;18.00;99.90
20803;DHT22;10562;-33.856;151.182;2022-10-18T09:54:25;18.00;99.90
20803;DHT22;10562;-33.856;151.182;2022-10-18T09:57:03;18.00;99.90
20803;DHT22;10562;-33.856;151.182;2022-10-18T09:59:38;18.00;99.90
20803;DHT22;10562;-33.856;151.182;2022-10-18T10:02:16;18.00;99.90
20803;DHT22;10562;-33.856;151.182;2022-10-18T10:04:47;18.00;99.90
20803;DHT22;10562;-33.856;151.182;2022-10-18T10:07:20;18.00;99.90
20803;DHT22;10562;-33.856;151.182;2022-10-18T10:09:57;18.00;99.90
20803;DHT22;10562;-33.856;151.182;2022-10-18T10:12:31;18.00;99.90
20803;DHT22;10562;-33.856;151.182;2022-10-18T10:15:17;18.00;99.90
20803;DHT22;10562;-33.856;151.182;2022-10-18T10:17:57;18.00;99.90
20803;DHT22;10562;-33.856;151.182;2022-10-18T10:20:34;17.90;99.90
20803;DHT22;10562;-33.856;151.182;2022-10-18T10:23:07;18.00;99.90
20803;DHT22;10562;-33.856;151.182;2022-10-18T10:25:39;18.00;99.90
20803;DHT22;10562;-33.856;151.182;2022-10-18T10:28:17;17.90;99.90
20803;DHT22;10562;-33.856;151.182;2022-10-18T10:30:49;17.90;99.90
20803;DHT22;10562;-33.856;151.182;2022-10-18T10:33:33;17.90;99.90
20803;DHT22;10562;-33.856;151.182;2022-10-18T10:36:08;17.90;99.90
20803;DHT22;10562;-33.856;151.182;2022-10-18T10:38:45;17.90;99.90
20803;DHT22;10562;-33.856;151.182;2022-10-18T10:41:20;17.90;99.90
20803;DHT22;10562;-33.856;151.182;2022-10-18T10:43:54;17.90;99.90
20803;DHT22;10562;-33.856;151.182;2022-10-18T10:46:33;17.90;99.90
20803;DHT22;10562;-33.856;151.182;2022-10-18T10:49:05;17.90;99.90
20803;DHT22;10562;-33.856;151.182;2022-10-18T10:51:37;18.00;99.90
20803;DHT22;10562;-33.856;151.182;2022-10-18T10:54:13;18.00;99.90
20803;DHT22;10562;-33.856;151.182;2022-10-18T10:56:53;18.00;99.90
20803;DHT22;10562;-33.856;151.182;2022-10-18T10:59:27;17.90;99.90
20803;DHT22;10562;-33.856;151.182;2022-10-18T11:02:19;17.90;99.90
20803;DHT22;10562;-33.856;151.182;2022-10-18T11:04:51;17.90;99.90
20803;DHT22;10562;-33.856;151.182;2022-10-18T11:07:26;17.90;99.90
20803;DHT22;10562;-33.856;151.182;2022-10-18T11:10:02;17.90;99.90
20803;DHT22;10562;-33.856;151.182;2022-10-18T11:12:35;18.00;99.90
20803;DHT22;10562;-33.856;151.182;2022-10-18T11:15:17;17.90;99.90
20803;DHT22;10562;-33.856;151.182;2022-10-18T11:17:59;17.90;99.90
20803;DHT22;10562;-33.856;151.182;2022-10-18T11:20:34;17.90;99.90
20803;DHT22;10562;-33.856;151.182;2022-10-18T11:23:09;17.90;99.90
20803;DHT22;10562;-33.856;151.182;2022-10-18T11:26:03;17.90;99.90
20803;DHT22;10562;-33.856;151.182;2022-10-18T11:28:47;17.90;99.90
20803;DHT22;10562;-33.856;151.182;2022-10-18T11:31:29;17.80;99.90
20803;DHT22;10562;-33.856;151.182;2022-10-18T11:34:10;17.80;99.90
20803;DHT22;10562;-33.856;151.182;2022-10-18T11:36:51;17.80;99.90
20803;DHT22;10562;-33.856;151.182;2022-10-18T11:39:32;17.70;99.90
20803;DHT22;10562;-33.856;151.182;2022-10-18T11:42:11;17.70;99.90
20803;DHT22;10562;-33.856;151.182;2022-10-18T11:44:51;17.70;99.90
20803;DHT22;10562;-33.856;151.182;2022-10-18T11:47:34;17.70;99.90
20803;DHT22;10562;-33.856;151.182;2022-10-18T11:50:15;17.60;99.90
20803;DHT22;10562;-33.856;151.182;2022-10-18T11:52:58;17.60;99.90
20803;DHT22;10562;-33.856;151.182;2022-10-18T11:55:48;17.50;99.90
20803;DHT22;10562;-33.856;151.182;2022-10-18T11:58:37;17.70;99.90
20803;DHT22;10562;-33.856;151.182;2022-10-18T12:01:18;17.80;99.90
20803;DHT22;10562;-33.856;151.182;2022-10-18T12:03:59;17.80;99.90
20803;DHT22;10562;-33.856;151.182;2022-10-18T12:06:35;17.70;99.90
20803;DHT22;10562;-33.856;151.182;2022-10-18T12:09:18;17.70;99.90
20803;DHT22;10562;-33.856;151.182;2022-10-18T12:11:54;17.60;99.90
20803;DHT22;10562;-33.856;151.182;2022-10-18T12:14:31;17.50;99.90
20803;DHT22;10562;-33.856;151.182;2022-10-18T12:17:06;17.60;99.90
20803;DHT22;10562;-33.856;151.182;2022-10-18T12:19:42;17.60;99.90
20803;DHT22;10562;-33.856;151.182;2022-10-18T12:22:20;17.50;99.90
20803;DHT22;10562;-33.856;151.182;2022-10-18T12:24:52;17.50;99.90
20803;DHT22;10562;-33.856;151.182;2022-10-18T12:27:31;17.50;99.90
20803;DHT22;10562;-33.856;151.182;2022-10-18T12:30:10;17.50;99.90
20803;DHT22;10562;-33.856;151.182;2022-10-18T12:32:44;17.50;99.90
20803;DHT22;10562;-33.856;151.182;2022-10-18T12:35:20;17.50;99.90
20803;DHT22;10562;-33.856;151.182;2022-10-18T12:38:01;17.40;99.90
20803;DHT22;10562;-33.856;151.182;2022-10-18T12:40:39;17.40;99.90
20803;DHT22;10562;-33.856;151.182;2022-10-18T12:43:17;17.40;99.90
20803;DHT22;10562;-33.856;151.182;2022-10-18T12:45:50;17.40;99.90
20803;DHT22;10562;-33.856;151.182;2022-10-18T12:48:33;17.40;99.90
20803;DHT22;10562;-33.856;151.182;2022-10-18T12:51:13;17.30;99.90
20803;DHT22;10562;-33.856;151.182;2022-10-18T12:53:44;17.40;99.90
20803;DHT22;10562;-33.856;151.182;2022-10-18T12:56:35;17.30;99.90
20803;DHT22;10562;-33.856;151.182;2022-10-18T13:02:29;17.40;99.90
20803;DHT22;10562;-33.856;151.182;2022-10-18T13:05:00;17.30;99.90
20803;DHT22;10562;-33.856;151.182;2022-10-18T13:08:12;17.30;99.90
20803;DHT22;10562;-33.856;151.182;2022-10-18T13:11:29;17.30;99.90
20803;DHT22;10562;-33.856;151.182;2022-10-18T13:14:24;17.20;99.90
20803;DHT22;10562;-33.856;151.182;2022-10-18T13:17:04;17.20;99.90
20803;DHT22;10562;-33.856;151.182;2022-10-18T13:19:43;17.20;99.90
20803;DHT22;10562;-33.856;151.182;2022-10-18T13:22:26;17.10;99.90
20803;DHT22;10562;-33.856;151.182;2022-10-18T13:25:05;17.00;99.90
20803;DHT22;10562;-33.856;151.182;2022-10-18T13:27:44;17.00;99.90
20803;DHT22;10562;-33.856;151.182;2022-10-18T13:30:38;17.00;99.90
20803;DHT22;10562;-33.856;151.182;2022-10-18T13:33:34;16.90;99.90
20803;DHT22;10562;-33.856;151.182;2022-10-18T13:36:19;17.00;99.90
20803;DHT22;10562;-33.856;151.182;2022-10-18T13:39:15;17.00;99.90
20803;DHT22;10562;-33.856;151.182;2022-10-18T13:42:26;17.00;99.90
20803;DHT22;10562;-33.856;151.182;2022-10-18T13:51:10;17.10;99.90
20803;DHT22;10562;-33.856;151.182;2022-10-18T13:53:49;17.00;99.90
20803;DHT22;10562;-33.856;151.182;2022-10-18T13:56:39;17.00;99.90
20803;DHT22;10562;-33.856;151.182;2022-10-18T13:59:27;17.00;99.90
20803;DHT22;10562;-33.856;151.182;2022-10-18T14:02:22;17.00;99.90
20803;DHT22;10562;-33.856;151.182;2022-10-18T14:05:05;17.00;99.90
20803;DHT22;10562;-33.856;151.182;2022-10-18T14:07:40;17.10;99.90
20803;DHT22;10562;-33.856;151.182;2022-10-18T14:10:21;17.10;99.90
20803;DHT22;10562;-33.856;151.182;2022-10-18T14:12:58;17.20;99.90
20803;DHT22;10562;-33.856;151.182;2022-10-18T14:15:33;17.20;99.90
20803;DHT22;10562;-33.856;151.182;2022-10-18T14:18:12;17.20;99.90
20803;DHT22;10562;-33.856;151.182;2022-10-18T14:20:47;17.10;99.90
20803;DHT22;10562;-33.856;151.182;2022-10-18T14:23:20;17.10;99.90
20803;DHT22;10562;-33.856;151.182;2022-10-18T14:26:01;17.10;99.90
20803;DHT22;10562;-33.856;151.182;2022-10-18T14:28:35;17.20;99.90
20803;DHT22;10562;-33.856;151.182;2022-10-18T14:31:12;17.20;99.90
20803;DHT22;10562;-33.856;151.182;2022-10-18T14:33:46;17.20;99.90
20803;DHT22;10562;-33.856;151.182;2022-10-18T14:36:23;17.20;99.90
20803;DHT22;10562;-33.856;151.182;2022-10-18T14:38:55;17.20;99.90
20803;DHT22;10562;-33.856;151.182;2022-10-18T14:41:27;17.20;99.90
20803;DHT22;10562;-33.856;151.182;2022-10-18T14:44:17;17.20;99.90
20803;DHT22;10562;-33.856;151.182;2022-10-18T14:46:51;17.20;99.90
20803;DHT22;10562;-33.856;151.182;2022-10-18T14:49:22;17.20;99.90
20803;DHT22;10562;-33.856;151.182;2022-10-18T14:51:55;17.20;99.90
20803;DHT22;10562;-33.856;151.182;2022-10-18T14:54:30;17.20;99.90
20803;DHT22;10562;-33.856;151.182;2022-10-18T14:57:05;17.20;99.90
20803;DHT22;10562;-33.856;151.182;2022-10-18T14:59:41;17.20;99.90
20803;DHT22;10562;-33.856;151.182;2022-10-18T15:02:17;17.20;99.90
20803;DHT22;10562;-33.856;151.182;2022-10-18T15:04:56;17.20;99.90
20803;DHT22;10562;-33.856;151.182;2022-10-18T15:07:27;17.20;99.90
20803;DHT22;10562;-33.856;151.182;2022-10-18T15:09:59;17.20;99.90
20803;DHT22;10562;-33.856;151.182;2022-10-18T15:12:32;17.20;99.90
20803;DHT22;10562;-33.856;151.182;2022-10-18T15:15:03;17.20;99.90
20803;DHT22;10562;-33.856;151.182;2022-10-18T15:17:36;17.20;99.90
20803;DHT22;10562;-33.856;151.182;2022-10-18T15:20:19;17.30;99.90
20803;DHT22;10562;-33.856;151.182;2022-10-18T15:22:52;17.20;99.90
20803;DHT22;10562;-33.856;151.182;2022-10-18T15:25:24;17.30;99.90
20803;DHT22;10562;-33.856;151.182;2022-10-18T15:27:58;17.30;99.90
20803;DHT22;10562;-33.856;151.182;2022-10-18T15:30:37;17.30;99.90
20803;DHT22;10562;-33.856;151.182;2022-10-18T15:33:21;17.30;99.90
20803;DHT22;10562;-33.856;151.182;2022-10-18T15:35:52;17.30;99.90
20803;DHT22;10562;-33.856;151.182;2022-10-18T15:38:26;17.30;99.90
20803;DHT22;10562;-33.856;151.182;2022-10-18T15:40:58;17.30;99.90
20803;DHT22;10562;-33.856;151.182;2022-10-18T15:43:36;17.40;99.90
20803;DHT22;10562;-33.856;151.182;2022-10-18T15:46:15;17.40;99.90
20803;DHT22;10562;-33.856;151.182;2022-10-18T15:52:41;17.40;99.90
20803;DHT22;10562;-33.856;151.182;2022-10-18T15:55:46;17.30;99.90